createdAt,value
2018-09-05T00:02:27.644Z,19.57
2018-09-05T00:04:56.864Z,17.67
2018-09-05T00:07:25.632Z,18.93
2018-09-05T00:09:54.291Z,17.77
2018-09-05T00:12:23.225Z,18.63
2018-09-05T00:14:51.891Z,16.53
2018-09-05T00:17:20.464Z,18.50
2018-09-05T00:19:49.411Z,17.07
2018-09-05T00:22:18.172Z,17.07
2018-09-05T00:24:47.207Z,15.93
2018-09-05T00:27:15.959Z,20.30
2018-09-05T00:29:45.659Z,19.23
2018-09-05T00:32:14.345Z,21.23
2018-09-05T00:34:42.991Z,19.37
2018-09-05T00:37:11.841Z,19.13
2018-09-05T00:39:40.721Z,19.90
2018-09-05T00:42:09.454Z,18.10
2018-09-05T00:44:38.471Z,19.20
2018-09-05T00:47:07.208Z,18.20
2018-09-05T00:49:36.182Z,18.63
2018-09-05T00:52:04.841Z,18.10
2018-09-05T00:54:35.963Z,18.83
2018-09-05T00:57:07.121Z,19.20
2018-09-05T00:59:35.800Z,20.33
2018-09-05T01:02:04.507Z,21.80
2018-09-05T01:04:33.169Z,20.07
2018-09-05T01:07:11.947Z,17.73
2018-09-05T01:09:41.197Z,18.50
2018-09-05T01:12:09.849Z,19.30
2018-09-05T01:14:38.512Z,19.40
2018-09-05T01:17:07.232Z,18.77
2018-09-05T01:19:36.701Z,18.10
2018-09-05T01:22:05.391Z,20.23
2018-09-05T01:24:34.298Z,22.47
2018-09-05T01:27:03.720Z,20.37
2018-09-05T01:29:33.312Z,20.83
2018-09-05T01:32:02.228Z,20.10
2018-09-05T01:34:31.000Z,18.97
2018-09-05T01:37:06.952Z,20.00
2018-09-05T01:39:35.707Z,22.80
2018-09-05T01:42:04.931Z,20.47
2018-09-05T01:44:33.621Z,21.27
2018-09-05T01:47:02.522Z,22.27
2018-09-05T01:49:31.915Z,21.43
2018-09-05T01:52:01.008Z,19.77
2018-09-05T01:54:30.132Z,23.73
2018-09-05T01:56:59.002Z,22.20
2018-09-05T01:59:28.579Z,23.07
2018-09-05T02:01:57.707Z,22.60
2018-09-05T02:04:26.361Z,22.27
2018-09-05T02:06:55.052Z,22.23
2018-09-05T02:09:23.882Z,21.97
2018-09-05T02:11:52.619Z,24.27
2018-09-05T02:14:21.190Z,21.77
2018-09-05T02:16:49.816Z,24.67
2018-09-05T02:19:18.460Z,21.80
2018-09-05T02:21:47.103Z,22.33
2018-09-05T02:24:15.692Z,22.13
2018-09-05T02:26:44.507Z,24.43
2018-09-05T02:29:13.069Z,22.57
2018-09-05T02:31:42.113Z,23.73
2018-09-05T02:34:10.760Z,25.37
2018-09-05T02:36:39.323Z,23.47
2018-09-05T02:39:10.010Z,21.97
2018-09-05T02:41:38.859Z,24.20
2018-09-05T02:44:12.948Z,21.50
2018-09-05T02:46:42.207Z,22.20
2018-09-05T02:49:12.803Z,21.47
2018-09-05T02:51:41.592Z,21.47
2018-09-05T02:54:10.267Z,22.07
2018-09-05T02:56:38.968Z,22.07
2018-09-05T02:59:07.639Z,21.90
2018-09-05T03:01:36.957Z,21.23
2018-09-05T03:04:06.896Z,24.47
2018-09-05T03:06:35.544Z,22.10
2018-09-05T03:09:05.183Z,21.43
2018-09-05T03:11:33.736Z,22.20
2018-09-05T03:14:02.411Z,22.47
2018-09-05T03:16:31.274Z,22.70
2018-09-05T03:18:59.988Z,21.87
2018-09-05T03:21:28.685Z,23.50
2018-09-05T03:23:57.474Z,22.90
2018-09-05T03:26:26.263Z,21.40
2018-09-05T03:28:54.941Z,22.63
2018-09-05T03:31:23.621Z,21.63
2018-09-05T03:33:52.190Z,23.30
2018-09-05T03:36:20.972Z,21.00
2018-09-05T03:38:49.845Z,21.83
2018-09-05T03:41:18.565Z,21.87
2018-09-05T03:43:47.263Z,21.60
2018-09-05T03:46:16.936Z,26.30
2018-09-05T03:48:47.023Z,22.53
2018-09-05T03:51:16.541Z,23.30
2018-09-05T03:53:45.420Z,20.53
2018-09-05T03:56:14.352Z,21.27
2018-09-05T03:58:43.046Z,21.43
2018-09-05T04:01:11.949Z,24.87
2018-09-05T04:03:40.783Z,24.13
2018-09-05T04:06:09.486Z,23.03
2018-09-05T04:08:38.185Z,21.90
2018-09-05T04:11:07.116Z,22.60
2018-09-05T04:13:36.435Z,21.53
2018-09-05T04:16:05.011Z,22.00
2018-09-05T04:18:33.785Z,23.17
2018-09-05T04:21:03.277Z,22.13
2018-09-05T04:23:38.828Z,22.40
2018-09-05T04:26:08.431Z,21.70
2018-09-05T04:28:37.168Z,22.27
2018-09-05T04:31:06.633Z,20.93
2018-09-05T04:33:35.448Z,22.90
2018-09-05T04:36:04.205Z,21.00
2018-09-05T04:38:33.311Z,22.07
2018-09-05T04:41:02.589Z,22.17
2018-09-05T04:43:31.235Z,21.30
2018-09-05T04:45:59.969Z,23.00
2018-09-05T04:48:28.804Z,20.50
2018-09-05T04:50:57.517Z,22.33
2018-09-05T04:53:26.180Z,21.60
2018-09-05T04:55:54.852Z,22.03
2018-09-05T04:58:23.606Z,23.33
2018-09-05T05:00:53.277Z,21.40
2018-09-05T05:03:21.951Z,24.10
2018-09-05T05:05:51.280Z,23.00
2018-09-05T05:08:21.004Z,21.70
2018-09-05T05:10:49.839Z,21.90
2018-09-05T05:13:18.816Z,21.80
2018-09-05T05:15:47.396Z,23.03
2018-09-05T05:18:16.080Z,22.47
2018-09-05T05:20:45.162Z,22.00
2018-09-05T05:23:14.531Z,21.80
2018-09-05T05:25:43.787Z,24.13
2018-09-05T05:28:12.700Z,23.13
2018-09-05T05:30:41.365Z,22.77
2018-09-05T05:33:10.029Z,23.47
2018-09-05T05:35:38.987Z,23.10
2018-09-05T05:38:07.545Z,21.03
2018-09-05T05:40:36.280Z,22.03
2018-09-05T05:43:05.008Z,21.03
2018-09-05T05:45:33.675Z,21.30
2018-09-05T05:48:02.336Z,20.00
2018-09-05T05:50:31.065Z,20.43
2018-09-05T05:53:00.660Z,19.40
2018-09-05T05:55:29.439Z,21.70
2018-09-05T05:57:58.610Z,23.50
2018-09-05T06:00:28.399Z,19.90
2018-09-05T06:02:57.261Z,22.40
2018-09-05T06:05:26.035Z,21.83
2018-09-05T06:07:55.771Z,21.40
2018-09-05T06:10:25.936Z,22.20
2018-09-05T06:12:56.396Z,22.80
2018-09-05T06:15:25.504Z,23.27
2018-09-05T06:17:54.169Z,22.90
2018-09-05T06:20:22.835Z,22.97
2018-09-05T06:22:51.517Z,20.83
2018-09-05T06:25:20.240Z,21.80
2018-09-05T06:27:49.436Z,21.20
2018-09-05T06:30:18.014Z,21.20
2018-09-05T06:32:47.330Z,19.87
2018-09-05T06:35:16.141Z,18.23
2018-09-05T06:37:45.522Z,22.27
2018-09-05T06:40:14.134Z,20.57
2018-09-05T06:42:43.020Z,21.60
2018-09-05T06:45:11.760Z,19.47
2018-09-05T06:47:40.424Z,21.53
2018-09-05T06:50:09.274Z,21.03
2018-09-05T06:52:37.984Z,20.47
2018-09-05T06:55:07.320Z,21.23
2018-09-05T06:57:36.029Z,23.67
2018-09-05T07:00:04.896Z,19.40
2018-09-05T07:02:33.611Z,19.17
2018-09-05T07:05:02.374Z,21.17
2018-09-05T07:07:32.531Z,20.97
2018-09-05T07:10:01.230Z,21.90
2018-09-05T07:12:29.918Z,21.63
2018-09-05T07:14:58.616Z,21.87
2018-09-05T07:20:36.614Z,20.73
2018-09-05T07:23:05.412Z,21.30
2018-09-05T07:25:34.133Z,21.53
2018-09-05T07:28:02.804Z,20.47
2018-09-05T07:30:31.646Z,21.43
2018-09-05T07:33:00.191Z,20.40
2018-09-05T07:35:29.089Z,22.83
2018-09-05T07:37:57.732Z,19.80
2018-09-05T07:40:27.493Z,21.10
2018-09-05T07:42:56.355Z,20.47
2018-09-05T07:45:25.176Z,18.63
2018-09-05T07:47:53.717Z,20.00
2018-09-05T07:50:22.492Z,20.23
2018-09-05T07:52:51.815Z,20.57
2018-09-05T07:55:20.721Z,21.93
2018-09-05T07:57:49.455Z,19.37
2018-09-05T08:00:18.144Z,19.50
2018-09-05T08:02:47.840Z,20.57
2018-09-05T08:05:16.495Z,22.43
2018-09-05T08:07:45.135Z,19.00
2018-09-05T08:10:14.112Z,21.53
2018-09-05T08:12:42.724Z,21.47
2018-09-05T08:15:13.355Z,19.70
2018-09-05T08:17:42.258Z,20.20
2018-09-05T08:20:10.904Z,23.60
2018-09-05T08:22:39.564Z,23.83
2018-09-05T08:25:09.149Z,20.00
2018-09-05T08:27:38.375Z,22.30
2018-09-05T08:30:07.144Z,18.80
2018-09-05T08:32:36.536Z,23.10
2018-09-05T08:35:05.354Z,23.43
2018-09-05T08:37:34.201Z,20.93
2018-09-05T08:40:02.823Z,21.03
2018-09-05T08:42:35.077Z,21.60
2018-09-05T08:45:05.147Z,21.50
2018-09-05T08:47:33.640Z,21.90
2018-09-05T08:50:02.520Z,19.47
2018-09-05T08:52:31.300Z,19.80
2018-09-05T08:55:00.870Z,19.30
2018-09-05T08:57:29.713Z,17.67
2018-09-05T08:59:58.468Z,18.70
2018-09-05T09:02:27.131Z,18.90
2018-09-05T09:04:56.676Z,18.10
2018-09-05T09:07:25.387Z,16.50
2018-09-05T09:09:54.271Z,16.93
2018-09-05T09:12:22.920Z,16.30
2018-09-05T09:14:52.216Z,17.60
2018-09-05T09:17:20.868Z,16.90
2018-09-05T09:19:49.933Z,16.90
2018-09-05T09:22:18.549Z,17.90
2018-09-05T09:24:47.195Z,15.17
2018-09-05T09:27:15.887Z,15.87
2018-09-05T09:29:45.136Z,15.60
2018-09-05T09:32:15.326Z,15.00
2018-09-05T09:34:44.096Z,13.80
2018-09-05T09:37:14.292Z,11.87
2018-09-05T09:39:42.923Z,12.67
2018-09-05T09:42:12.069Z,11.70
2018-09-05T09:44:40.862Z,13.40
2018-09-05T09:47:09.895Z,11.70
2018-09-05T09:49:38.659Z,14.00
2018-09-05T09:52:12.561Z,14.80
2018-09-05T09:54:41.165Z,13.10
2018-09-05T09:57:09.896Z,15.40
2018-09-05T09:59:39.109Z,15.83
2018-09-05T10:02:13.067Z,16.37
2018-09-05T10:04:46.849Z,17.77
2018-09-05T10:07:21.029Z,15.80
2018-09-05T10:09:53.332Z,16.47
2018-09-05T10:12:26.932Z,15.17
2018-09-05T10:15:18.607Z,13.63
2018-09-05T10:17:51.396Z,12.97
2018-09-05T10:20:19.959Z,13.23
2018-09-05T10:22:49.133Z,14.47
2018-09-05T10:25:17.836Z,12.47
2018-09-05T10:27:46.529Z,12.27
2018-09-05T10:30:15.090Z,13.10
2018-09-05T10:32:44.247Z,15.00
2018-09-05T10:35:13.728Z,12.73
2018-09-05T10:37:42.638Z,12.53
2018-09-05T10:40:11.354Z,12.23
2018-09-05T10:42:40.052Z,12.90
2018-09-05T10:45:08.943Z,10.60
2018-09-05T10:47:38.359Z,11.80
2018-09-05T10:50:07.278Z,10.27
2018-09-05T10:52:36.744Z,10.27
2018-09-05T10:55:05.938Z,9.77
2018-09-05T10:57:34.717Z,8.67
2018-09-05T11:00:03.712Z,8.70
2018-09-05T11:02:32.904Z,9.50
2018-09-05T11:05:02.073Z,8.53
2018-09-05T11:07:30.773Z,9.17
2018-09-05T11:09:59.748Z,8.30
2018-09-05T11:12:28.349Z,8.20
2018-09-05T11:14:57.045Z,8.33
2018-09-05T11:17:25.921Z,8.70
2018-09-05T11:19:54.657Z,8.10
2018-09-05T11:22:23.382Z,8.07
2018-09-05T11:24:52.234Z,9.40
2018-09-05T11:27:21.016Z,8.63
2018-09-05T11:29:49.755Z,8.30
2018-09-05T11:32:18.435Z,8.33
2018-09-05T11:34:47.130Z,7.83
2018-09-05T11:37:16.012Z,8.03
2018-09-05T11:39:44.911Z,9.00
2018-09-05T11:42:17.659Z,8.93
2018-09-05T11:44:47.981Z,8.00
2018-09-05T11:47:16.506Z,8.77
2018-09-05T11:49:45.208Z,8.87
2018-09-05T11:52:14.152Z,8.27
2018-09-05T11:54:42.802Z,7.80
2018-09-05T11:57:12.741Z,7.80
2018-09-05T11:59:41.572Z,8.13
2018-09-05T12:02:11.894Z,8.73
2018-09-05T12:04:41.512Z,9.33
2018-09-05T12:07:10.844Z,8.30
2018-09-05T12:09:40.711Z,7.90
2018-09-05T12:12:10.186Z,7.97
2018-09-05T12:14:40.356Z,8.40
2018-09-05T12:17:09.588Z,9.20
2018-09-05T12:19:38.225Z,8.17
2018-09-05T12:22:06.929Z,8.67
2018-09-05T12:24:36.088Z,7.43
2018-09-05T12:27:06.018Z,8.17
2018-09-05T12:29:34.953Z,7.57
2018-09-05T12:32:04.328Z,8.10
2018-09-05T12:34:32.956Z,6.97
2018-09-05T12:37:02.460Z,7.70
2018-09-05T12:39:31.144Z,7.97
2018-09-05T12:41:59.819Z,7.60
2018-09-05T12:44:28.606Z,8.53
2018-09-05T12:46:57.258Z,8.63
2018-09-05T12:49:26.159Z,7.00
2018-09-05T12:51:54.792Z,8.30
2018-09-05T12:54:23.420Z,8.13
2018-09-05T12:56:52.154Z,8.27
2018-09-05T12:59:21.465Z,8.37
2018-09-05T13:01:50.492Z,8.80
2018-09-05T13:04:19.294Z,8.30
2018-09-05T13:06:47.971Z,8.20
2018-09-05T13:09:16.542Z,8.27
2018-09-05T13:11:45.345Z,8.03
2018-09-05T13:14:13.962Z,8.80
2018-09-05T13:16:42.641Z,8.20
2018-09-05T13:19:12.119Z,9.50
2018-09-05T13:21:41.056Z,8.70
2018-09-05T13:24:09.947Z,8.90
2018-09-05T13:26:38.631Z,10.73
2018-09-05T13:29:07.360Z,9.03
2018-09-05T13:31:36.216Z,8.10
2018-09-05T13:34:05.893Z,9.40
2018-09-05T13:36:34.628Z,9.77
2018-09-05T13:39:03.547Z,8.87
2018-09-05T13:41:32.228Z,9.20
2018-09-05T13:44:01.041Z,8.93
2018-09-05T13:46:31.082Z,7.93
2018-09-05T13:48:59.863Z,8.33
2018-09-05T13:51:28.741Z,8.30
2018-09-05T13:53:58.086Z,10.10
2018-09-05T13:56:26.972Z,10.37
2018-09-05T13:58:55.588Z,8.63
2018-09-05T14:01:24.685Z,7.80
2018-09-05T14:03:53.433Z,7.73
2018-09-05T14:06:23.487Z,8.63
2018-09-05T14:08:52.472Z,8.03
2018-09-05T14:11:21.283Z,7.87
2018-09-05T14:13:49.984Z,9.37
2018-09-05T14:16:19.773Z,8.13
2018-09-05T14:18:48.380Z,8.23
2018-09-05T14:21:18.680Z,8.27
2018-09-05T14:23:47.884Z,9.07
2018-09-05T14:26:16.543Z,10.00
2018-09-05T14:28:45.770Z,8.97
2018-09-05T14:31:15.039Z,8.87
2018-09-05T14:33:43.721Z,8.30
2018-09-05T14:36:12.444Z,8.20
2018-09-05T14:38:41.013Z,7.63
2018-09-05T14:41:09.816Z,8.07
2018-09-05T14:43:38.567Z,7.87
2018-09-05T14:46:08.168Z,9.57
2018-09-05T14:48:36.956Z,8.20
2018-09-05T14:51:05.586Z,8.77
2018-09-05T14:53:34.323Z,9.60
2018-09-05T14:56:03.911Z,8.50
2018-09-05T14:58:32.799Z,7.47
2018-09-05T15:01:01.550Z,7.70
2018-09-05T15:03:30.117Z,8.10
2018-09-05T15:05:58.675Z,8.40
2018-09-05T15:08:27.399Z,8.77
2018-09-05T15:10:56.062Z,8.17
2018-09-05T15:13:24.801Z,7.90
2018-09-05T15:15:53.452Z,8.60
2018-09-05T15:18:22.163Z,7.90
2018-09-05T15:20:50.756Z,7.57
2018-09-05T15:23:20.079Z,8.03
2018-09-05T15:25:48.823Z,7.73
2018-09-05T15:28:17.457Z,8.87
2018-09-05T15:30:46.152Z,8.70
2018-09-05T15:33:16.336Z,7.80
2018-09-05T15:35:45.474Z,8.57
2018-09-05T15:38:14.981Z,9.30
2018-09-05T15:40:43.613Z,8.87
2018-09-05T15:43:12.482Z,8.50
2018-09-05T15:45:41.075Z,9.40
2018-09-05T15:48:10.513Z,9.17
2018-09-05T15:50:39.117Z,8.00
2018-09-05T15:53:07.873Z,8.37
2018-09-05T15:55:36.404Z,7.80
2018-09-05T15:58:04.996Z,8.53
2018-09-05T16:00:33.560Z,8.97
2018-09-05T16:03:02.132Z,8.30
2018-09-05T16:05:30.724Z,8.33
2018-09-05T16:07:59.457Z,9.43
2018-09-05T16:10:28.088Z,9.23
2018-09-05T16:12:56.638Z,7.67
2018-09-05T16:15:25.478Z,9.93
2018-09-05T16:20:56.375Z,9.50
2018-09-05T16:23:24.947Z,9.10
2018-09-05T16:25:53.502Z,9.70
2018-09-05T16:28:22.213Z,8.80
2018-09-05T16:30:50.915Z,9.37
2018-09-05T16:33:19.537Z,8.40
2018-09-05T16:35:48.141Z,8.97
2018-09-05T16:38:16.732Z,8.90
2018-09-05T16:40:45.312Z,10.33
2018-09-05T16:43:13.991Z,10.00
2018-09-05T16:45:42.531Z,10.33
2018-09-05T16:48:11.088Z,10.97
2018-09-05T16:50:39.643Z,11.63
2018-09-05T16:53:08.229Z,10.00
2018-09-05T16:55:36.856Z,9.67
2018-09-05T16:58:05.538Z,8.43
2018-09-05T17:00:34.399Z,8.83
2018-09-05T17:03:03.132Z,9.93
2018-09-05T17:05:31.843Z,9.30
2018-09-05T17:08:00.937Z,10.33
2018-09-05T17:10:30.819Z,10.70
2018-09-05T17:12:59.373Z,9.80
2018-09-05T17:15:28.005Z,9.77
2018-09-05T17:17:56.686Z,9.03
2018-09-05T17:20:25.358Z,9.10
2018-09-05T17:22:54.040Z,10.50
2018-09-05T17:25:22.864Z,11.60
2018-09-05T17:27:51.607Z,9.90
2018-09-05T17:30:20.484Z,10.07
2018-09-05T17:32:49.248Z,8.87
2018-09-05T17:35:18.078Z,8.50
2018-09-05T17:37:46.800Z,9.33
2018-09-05T17:40:15.524Z,9.23
2018-09-05T17:42:44.188Z,10.07
2018-09-05T17:45:12.843Z,9.77
2018-09-05T17:47:41.527Z,11.20
2018-09-05T17:50:10.396Z,11.17
2018-09-05T17:52:38.939Z,11.40
2018-09-05T17:55:07.798Z,9.70
2018-09-05T17:57:36.647Z,10.33
2018-09-05T18:00:06.020Z,11.53
2018-09-05T18:02:34.655Z,11.17
2018-09-05T18:05:03.943Z,10.17
2018-09-05T18:07:32.612Z,10.70
2018-09-05T18:10:01.365Z,10.30
2018-09-05T18:12:30.012Z,10.00
2018-09-05T18:14:59.564Z,9.73
2018-09-05T18:17:28.963Z,9.90
2018-09-05T18:19:58.331Z,9.47
2018-09-05T18:22:27.233Z,10.90
2018-09-05T18:24:56.784Z,10.87
2018-09-05T18:27:25.426Z,10.77
2018-09-05T18:29:54.059Z,10.20
2018-09-05T18:32:22.736Z,10.97
2018-09-05T18:34:51.261Z,12.03
2018-09-05T18:37:19.923Z,12.03
2018-09-05T18:39:48.563Z,11.60
2018-09-05T18:42:17.451Z,12.20
2018-09-05T18:44:46.880Z,12.20
2018-09-05T18:47:16.300Z,10.80
2018-09-05T18:49:45.160Z,10.60
2018-09-05T18:52:14.092Z,10.53
2018-09-05T18:54:42.883Z,10.97
2018-09-05T18:57:12.035Z,11.50
2018-09-05T18:59:41.299Z,10.10
2018-09-05T19:02:11.054Z,11.63
2018-09-05T19:04:39.735Z,9.70
2018-09-05T19:07:08.402Z,11.60
2018-09-05T19:09:37.099Z,11.90
2018-09-05T19:12:05.775Z,11.67
2018-09-05T19:14:34.335Z,10.60
2018-09-05T19:17:02.951Z,10.30
2018-09-05T19:19:32.160Z,10.33
2018-09-05T19:22:00.728Z,10.23
2018-09-05T19:24:29.528Z,11.23
2018-09-05T19:26:59.040Z,10.70
2018-09-05T19:29:27.632Z,11.93
2018-09-05T19:31:56.303Z,11.20
2018-09-05T19:34:25.037Z,10.83
2018-09-05T19:36:53.667Z,11.40
2018-09-05T19:39:22.356Z,11.10
2018-09-05T19:41:51.067Z,11.10
2018-09-05T19:44:19.734Z,11.20
2018-09-05T19:46:48.396Z,11.97
2018-09-05T19:49:18.254Z,11.93
2018-09-05T19:51:46.980Z,11.60
2018-09-05T19:54:15.892Z,12.37
2018-09-05T19:56:44.591Z,11.87
2018-09-05T19:59:13.373Z,11.00
2018-09-05T20:01:42.779Z,10.77
2018-09-05T20:04:11.443Z,10.37
2018-09-05T20:06:40.124Z,10.10
2018-09-05T20:09:09.500Z,12.17
2018-09-05T20:11:38.089Z,11.33
2018-09-05T20:14:06.988Z,10.33
2018-09-05T20:16:35.664Z,9.83
2018-09-05T20:19:04.943Z,11.67
2018-09-05T20:21:33.916Z,10.20
2018-09-05T20:24:03.365Z,10.20
2018-09-05T20:26:32.688Z,10.77
2018-09-05T20:29:01.356Z,11.33
2018-09-05T20:31:30.669Z,10.87
2018-09-05T20:33:59.963Z,10.80
2018-09-05T20:36:28.631Z,11.67
2018-09-05T20:38:57.330Z,10.53
2018-09-05T20:41:26.230Z,11.63
2018-09-05T20:43:55.469Z,12.13
2018-09-05T20:46:25.088Z,11.00
2018-09-05T20:48:53.760Z,11.20
2018-09-05T20:51:22.484Z,10.23
2018-09-05T20:53:51.139Z,11.17
2018-09-05T20:56:19.988Z,10.40
2018-09-05T20:58:48.657Z,10.10
2018-09-05T21:01:17.577Z,9.50
2018-09-05T21:03:46.192Z,9.60
2018-09-05T21:06:14.962Z,10.00
2018-09-05T21:08:44.072Z,9.67
2018-09-05T21:11:16.221Z,10.83
2018-09-05T21:13:44.859Z,10.07
2018-09-05T21:16:13.630Z,10.93
2018-09-05T21:18:42.175Z,10.03
2018-09-05T21:21:11.238Z,10.60
2018-09-05T21:23:39.996Z,10.60
2018-09-05T21:26:08.819Z,9.40
2018-09-05T21:28:37.582Z,10.73
2018-09-05T21:31:07.477Z,10.73
2018-09-05T21:33:36.171Z,10.87
2018-09-05T21:36:05.035Z,10.97
2018-09-05T21:38:33.759Z,10.60
2018-09-05T21:41:03.035Z,10.17
2018-09-05T21:43:31.901Z,10.67
2018-09-05T21:46:00.835Z,10.47
2018-09-05T21:48:29.511Z,9.43
2018-09-05T21:50:58.156Z,9.47
2018-09-05T21:53:26.957Z,9.20
2018-09-05T21:55:56.240Z,10.10
2018-09-05T21:58:25.022Z,9.70
2018-09-05T22:00:54.431Z,10.07
2018-09-05T22:03:23.108Z,9.67
2018-09-05T22:05:51.881Z,9.80
2018-09-05T22:08:20.937Z,12.27
2018-09-05T22:10:49.675Z,10.30
2018-09-05T22:13:18.930Z,11.20
2018-09-05T22:15:48.503Z,9.20
2018-09-05T22:21:19.972Z,10.60
2018-09-05T22:23:50.427Z,9.87
2018-09-05T22:26:19.363Z,10.23
2018-09-05T22:28:48.139Z,9.47
2018-09-05T22:31:17.072Z,9.30
2018-09-05T22:33:45.999Z,9.37
2018-09-05T22:36:14.755Z,8.47
2018-09-05T22:38:43.368Z,10.33
2018-09-05T22:41:12.417Z,10.17
2018-09-05T22:43:51.981Z,9.70
2018-09-05T22:46:31.632Z,9.20
2018-09-05T22:51:22.010Z,10.43
2018-09-05T22:54:07.104Z,8.90
2018-09-05T22:57:54.241Z,10.13
2018-09-05T23:02:45.609Z,9.87
2018-09-05T23:05:25.448Z,10.10
2018-09-05T23:08:41.040Z,9.43
2018-09-05T23:12:21.004Z,10.53
2018-09-05T23:15:04.430Z,9.40
2018-09-05T23:19:43.016Z,9.70
2018-09-05T23:22:11.570Z,10.33
2018-09-05T23:24:40.420Z,10.60
2018-09-05T23:27:09.896Z,9.43
2018-09-05T23:29:38.913Z,9.80
2018-09-05T23:32:07.676Z,9.50
2018-09-05T23:34:36.291Z,9.33
2018-09-05T23:37:05.768Z,9.40
2018-09-05T23:39:34.599Z,10.40
2018-09-05T23:42:03.133Z,8.80
2018-09-05T23:44:31.815Z,10.13
2018-09-05T23:47:00.468Z,9.40
2018-09-05T23:49:29.323Z,10.10
2018-09-05T23:51:58.046Z,8.80
2018-09-05T23:54:27.635Z,8.83
2018-09-05T23:56:57.614Z,8.90
2018-09-05T23:59:26.216Z,9.50
